Time;durP1;ratioP1;P1;durP2;ratioP2;P2;SDS_P1;SDS_P2;PMS_P1;PMS_P2;Temp;Humidity;BMP_temperature;BMP_pressure;BME280_temperature;BME280_humidity;BME280_pressure;Samples;Min_cycle;Max_cycle;Signal;HPM_P1;HPM_P2
2023/07/27 00:01:54;;;;;;;;;;;;;;;24.16;33.07;99476.75;6130803;23;19986;-68
2023/07/27 00:04:22;;;;;;;;;;;;;;;24.12;33.84;99476.56;6153007;23;19908;-69
2023/07/27 00:06:48;;;;;;;;;;;;;;;24.15;33.32;99475.16;6125768;23;19917;-69
2023/07/27 00:09:14;;;;;;;;;;;;;;;24.17;33.29;99483.06;6102591;23;19909;-69
2023/07/27 00:11:39;;;;;;;;;;;;;;;24.17;33.61;99483.06;6152293;23;19909;-69
2023/07/27 00:14:04;;;;;;;;;;;;;;;24.22;33.37;99477.44;6152945;23;20011;-69
2023/07/27 00:16:30;;;;;;;;;;;;;;;24.26;33.45;99479.28;6150747;23;19958;-69
2023/07/27 00:18:56;;;;;;;;;;;;;;;24.28;33.08;99474.28;6152475;23;19959;-69
2023/07/27 00:21:22;;;;;;;;;;;;;;;24.26;33.07;99482.03;6127601;23;19915;-68
2023/07/27 00:23:47;;;;;;;;;;;;;;;24.22;33.73;99478.28;6151150;23;19936;-68
2023/07/27 00:26:12;;;;;;;;;;;;;;;24.11;33.58;99482.38;6151891;23;19912;-68
2023/07/27 00:28:38;;;;;;;;;;;;;;;24.11;33.09;99480.44;6150833;23;19928;-68
2023/07/27 00:31:03;;;;;;;;;;;;;;;24.12;33.26;99470.28;6151875;23;19912;-68
2023/07/27 00:33:31;;;;;;;;;;;;;;;24.08;33.66;99474.75;6126177;23;19959;-68
2023/07/27 00:35:57;;;;;;;;;;;;;;;24.06;33.43;99472.31;6151391;23;19912;-69
2023/07/27 00:38:23;;;;;;;;;;;;;;;23.96;33.73;99469.81;6152983;23;19916;-69
2023/07/27 00:40:48;;;;;;;;;;;;;;;23.94;33.87;99474.75;6153619;23;19913;-68
2023/07/27 00:43:13;;;;;;;;;;;;;;;23.96;33.77;99469.81;6151011;23;19908;-68
2023/07/27 00:45:39;;;;;;;;;;;;;;;23.90;34.07;99469.09;6153213;23;19909;-69
2023/07/27 00:48:04;;;;;;;;;;;;;;;23.86;33.46;99467.28;6152679;23;19909;-69
2023/07/27 00:50:30;;;;;;;;;;;;;;;23.76;34.05;99460.06;6154801;23;19959;-69
2023/07/27 00:52:56;;;;;;;;;;;;;;;23.70;34.31;99464.81;6128525;23;19980;-70
2023/07/27 00:55:21;;;;;;;;;;;;;;;23.64;33.54;99471.50;6153807;23;19940;-70
2023/07/27 00:57:46;;;;;;;;;;;;;;;23.60;34.03;99464.22;6154084;23;19916;-69
2023/07/27 01:00:13;;;;;;;;;;;;;;;23.50;34.13;99470.72;6155041;23;20218;-69
2023/07/27 01:02:39;;;;;;;;;;;;;;;23.46;34.59;99462.28;6153971;23;19979;-69
2023/07/27 01:05:04;;;;;;;;;;;;;;;23.50;34.18;99471.53;6154529;23;19913;-69
2023/07/27 01:07:30;;;;;;;;;;;;;;;23.47;34.73;99471.31;6152812;23;20274;-69
2023/07/27 01:09:55;;;;;;;;;;;;;;;23.42;34.66;99469.50;6155082;23;19908;-69
2023/07/27 01:12:24;;;;;;;;;;;;;;;23.47;34.94;99465.84;6154216;23;20318;-69
2023/07/27 01:15:04;;;;;;;;;;;;;;;23.53;34.87;99459.97;6152099;23;20314;-69
2023/07/27 01:17:55;;;;;;;;;;;;;;;23.59;34.71;99463.41;6128557;23;20274;-69
2023/07/27 01:20:21;;;;;;;;;;;;;;;23.63;34.51;99469.09;6120424;23;19917;-69
2023/07/27 01:23:07;;;;;;;;;;;;;;;23.65;34.83;99469.59;6155021;23;19915;-69
2023/07/27 01:25:51;;;;;;;;;;;;;;;23.66;34.43;99469.31;6153458;23;19908;-69
2023/07/27 01:28:19;;;;;;;;;;;;;;;23.70;34.51;99472.22;6153364;23;19909;-69
2023/07/27 01:30:50;;;;;;;;;;;;;;;23.75;34.38;99466.63;6153601;23;19987;-69
2023/07/27 01:33:19;;;;;;;;;;;;;;;23.75;34.89;99467.47;6153407;23;19909;-69
2023/07/27 01:35:50;;;;;;;;;;;;;;;23.78;34.98;99458.63;6154596;23;19908;-69
2023/07/27 01:38:16;;;;;;;;;;;;;;;23.74;34.40;99457.59;6126196;23;19951;-69
2023/07/27 01:40:42;;;;;;;;;;;;;;;23.73;34.68;99461.47;6154261;23;19913;-68
2023/07/27 01:43:09;;;;;;;;;;;;;;;23.76;34.29;99455.38;6154681;23;20481;-68
2023/07/27 01:45:34;;;;;;;;;;;;;;;23.79;34.78;99459.44;6153097;23;20039;-69
2023/07/27 01:48:00;;;;;;;;;;;;;;;23.82;34.75;99460.78;6153095;23;19960;-69
2023/07/27 01:50:27;;;;;;;;;;;;;;;23.82;35.00;99450.63;6152244;23;19908;-69
2023/07/27 01:52:53;;;;;;;;;;;;;;;23.84;34.71;99453.06;6154292;23;19936;-68
2023/07/27 01:55:19;;;;;;;;;;;;;;;23.87;34.76;99449.72;6154315;23;20234;-68
2023/07/27 01:57:46;;;;;;;;;;;;;;;23.87;34.70;99455.19;6152416;23;19987;-68
2023/07/27 02:00:12;;;;;;;;;;;;;;;23.84;34.86;99451.13;6154020;23;20315;-68
2023/07/27 02:02:38;;;;;;;;;;;;;;;23.87;34.97;99452.47;6153232;23;19966;-68
2023/07/27 02:05:03;;;;;;;;;;;;;;;23.92;34.89;99452.31;6154202;23;20314;-69
2023/07/27 02:07:28;;;;;;;;;;;;;;;23.93;34.61;99451.22;6154126;23;19909;-69
2023/07/27 02:09:53;;;;;;;;;;;;;;;23.94;34.47;99456.41;6151602;23;19912;-69
2023/07/27 02:12:23;;;;;;;;;;;;;;;23.99;34.41;99458.22;6154709;23;19940;-69
2023/07/27 02:15:02;;;;;;;;;;;;;;;23.98;34.94;99455.75;6152267;23;20076;-69
2023/07/27 02:17:38;;;;;;;;;;;;;;;23.93;34.63;99456.69;6155000;23;19908;-69
2023/07/27 02:20:06;;;;;;;;;;;;;;;23.91;34.73;99453.47;6153571;23;20415;-69
2023/07/27 02:22:32;;;;;;;;;;;;;;;23.92;34.57;99455.06;6152526;23;19951;-69
2023/07/27 02:24:58;;;;;;;;;;;;;;;23.90;35.14;99455.41;6154167;23;19908;-69
2023/07/27 02:27:23;;;;;;;;;;;;;;;23.93;34.77;99452.03;6152545;23;19936;-69
2023/07/27 02:29:48;;;;;;;;;;;;;;;23.90;35.03;99458.13;6127941;23;19913;-69
2023/07/27 02:32:14;;;;;;;;;;;;;;;23.90;35.63;99460.88;6152607;23;19961;-69
2023/07/27 02:34:39;;;;;;;;;;;;;;;23.86;34.68;99448.06;6153215;23;19915;-69
2023/07/27 02:37:04;;;;;;;;;;;;;;;23.86;34.79;99459.03;6153989;23;20035;-69
2023/07/27 02:39:30;;;;;;;;;;;;;;;23.85;34.79;99458.25;6126599;23;20250;-69
2023/07/27 02:41:55;;;;;;;;;;;;;;;23.84;34.87;99453.88;6153562;23;19985;-69
2023/07/27 02:44:20;;;;;;;;;;;;;;;23.79;35.27;99456.72;6153673;23;19917;-69
2023/07/27 02:46:45;;;;;;;;;;;;;;;23.79;34.62;99453.97;6151018;23;20253;-69
2023/07/27 02:49:11;;;;;;;;;;;;;;;23.70;35.30;99458.50;6154181;23;19931;-69
2023/07/27 02:51:36;;;;;;;;;;;;;;;23.68;35.28;99456.09;6151723;23;19912;-69
2023/07/27 02:54:01;;;;;;;;;;;;;;;23.71;35.30;99463.69;6127646;23;19916;-68
2023/07/27 02:56:26;;;;;;;;;;;;;;;23.72;34.84;99459.84;6152118;23;20321;-69
2023/07/27 02:58:52;;;;;;;;;;;;;;;23.74;35.05;99463.09;6151306;23;19909;-69
2023/07/27 03:01:18;;;;;;;;;;;;;;;23.73;35.13;99457.91;6153643;23;20238;-69
2023/07/27 03:03:43;;;;;;;;;;;;;;;23.71;35.21;99463.69;6151456;23;19924;-69
2023/07/27 03:06:08;;;;;;;;;;;;;;;23.75;35.25;99459.25;6127768;23;19912;-69
2023/07/27 03:08:34;;;;;;;;;;;;;;;23.81;34.88;99457.25;6154106;23;19966;-69
2023/07/27 03:11:03;;;;;;;;;;;;;;;23.84;35.07;99461.28;6152730;23;19916;-69
2023/07/27 03:13:28;;;;;;;;;;;;;;;23.84;35.10;99464.03;6153987;23;19909;-69
2023/07/27 03:15:55;;;;;;;;;;;;;;;23.90;34.77;99469.09;6152919;23;20238;-69
2023/07/27 03:18:21;;;;;;;;;;;;;;;23.92;35.13;99469.59;6153952;23;19909;-69
2023/07/27 03:20:46;;;;;;;;;;;;;;;23.88;34.97;99465.84;6153059;23;20361;-69
2023/07/27 03:23:11;;;;;;;;;;;;;;;23.93;35.00;99473.97;6125712;23;19915;-69
2023/07/27 03:25:37;;;;;;;;;;;;;;;23.96;34.77;99467.06;6155021;23;20219;-69
2023/07/27 03:28:07;;;;;;;;;;;;;;;24.02;34.97;99473.25;6153347;23;19916;-68
2023/07/27 03:30:33;;;;;;;;;;;;;;;24.01;34.92;99469.69;6153839;23;19909;-69
2023/07/27 03:32:59;;;;;;;;;;;;;;;24.04;34.89;99473.75;6154539;23;19990;-69
2023/07/27 03:35:24;;;;;;;;;;;;;;;23.99;35.34;99471.91;6151938;23;19960;-69
2023/07/27 03:37:50;;;;;;;;;;;;;;;24.04;34.86;99480.03;6148939;23;19909;-69
2023/07/27 03:40:15;;;;;;;;;;;;;;;24.05;34.71;99478.94;6151516;23;20008;-69
2023/07/27 03:42:41;;;;;;;;;;;;;;;24.05;34.41;99487.16;6150960;23;19912;-69
2023/07/27 03:45:06;;;;;;;;;;;;;;;24.07;34.39;99490.41;6153343;23;19913;-68
2023/07/27 03:47:32;;;;;;;;;;;;;;;24.10;34.64;99495.25;6151028;23;19908;-68
2023/07/27 03:49:57;;;;;;;;;;;;;;;24.16;34.50;99495.97;6153471;23;20359;-69
2023/07/27 03:52:22;;;;;;;;;;;;;;;24.18;34.35;99490.97;6149909;23;20230;-69
2023/07/27 03:54:48;;;;;;;;;;;;;;;24.23;34.41;99492.81;6153141;23;19961;-68
2023/07/27 03:57:13;;;;;;;;;;;;;;;24.24;34.73;99486.22;6153737;23;19959;-67
2023/07/27 03:59:38;;;;;;;;;;;;;;;24.23;34.60;99490.88;6150239;23;19925;-68
2023/07/27 04:02:04;;;;;;;;;;;;;;;24.26;34.94;99494.94;6153820;23;19981;-68
2023/07/27 04:04:29;;;;;;;;;;;;;;;24.25;34.38;99488.63;6151487;23;20274;-68
2023/07/27 04:06:54;;;;;;;;;;;;;;;24.30;34.33;99496.75;6153397;23;19908;-68
2023/07/27 04:09:19;;;;;;;;;;;;;;;24.28;34.13;99498.19;6153310;23;19912;-68
2023/07/27 04:11:45;;;;;;;;;;;;;;;24.31;34.32;99494.81;6152286;23;19909;-69
2023/07/27 04:14:10;;;;;;;;;;;;;;;24.35;33.87;99495.84;6154041;23;19971;-69
2023/07/27 04:16:36;;;;;;;;;;;;;;;24.39;33.90;99499.56;6125870;23;19915;-69
2023/07/27 04:19:01;;;;;;;;;;;;;;;24.44;33.65;99490.41;6152940;23;19948;-69
2023/07/27 04:21:27;;;;;;;;;;;;;;;24.47;34.14;99503.50;6155398;23;19917;-69
2023/07/27 04:23:52;;;;;;;;;;;;;;;24.49;33.46;99493.03;6153716;23;19908;-69
2023/07/27 04:26:17;;;;;;;;;;;;;;;24.47;33.67;99495.28;6154515;23;19920;-69
2023/07/27 04:28:42;;;;;;;;;;;;;;;24.48;34.02;99494.97;6154245;23;19909;-69
2023/07/27 04:31:08;;;;;;;;;;;;;;;24.56;33.61;99500.88;6153726;23;19912;-69
2023/07/27 04:33:33;;;;;;;;;;;;;;;24.58;33.88;99498.63;6155582;23;20060;-69
2023/07/27 04:36:02;;;;;;;;;;;;;;;24.57;33.72;99497.00;6153478;23;20541;-69
2023/07/27 04:38:27;;;;;;;;;;;;;;;24.58;33.37;99499.44;6154583;23;19959;-69
2023/07/27 04:40:52;;;;;;;;;;;;;;;24.67;33.78;99500.31;6153524;23;19964;-69
2023/07/27 04:43:18;;;;;;;;;;;;;;;24.73;33.64;99492.75;6153582;23;19909;-68
2023/07/27 04:45:43;;;;;;;;;;;;;;;24.78;33.18;99492.66;6128918;23;19915;-69
2023/07/27 04:48:08;;;;;;;;;;;;;;;24.80;33.05;99489.59;6152209;23;19943;-68
2023/07/27 04:50:34;;;;;;;;;;;;;;;24.84;33.05;99485.09;6153494;23;20369;-68
2023/07/27 04:52:59;;;;;;;;;;;;;;;24.78;32.84;99487.16;6154644;23;19909;-68
2023/07/27 04:55:25;;;;;;;;;;;;;;;24.68;32.75;99488.22;6153532;23;19955;-69
2023/07/27 04:57:50;;;;;;;;;;;;;;;24.60;33.18;99483.47;6153580;23;19952;-69
2023/07/27 05:00:16;;;;;;;;;;;;;;;24.54;33.15;99488.25;6154195;23;19920;-69
2023/07/27 05:02:41;;;;;;;;;;;;;;;24.47;33.29;99487.84;6128542;23;19921;-69
2023/07/27 05:05:06;;;;;;;;;;;;;;;24.38;33.78;99488.91;6155538;23;19909;-69
2023/07/27 05:07:32;;;;;;;;;;;;;;;24.34;33.85;99485.97;6152210;23;19915;-69
2023/07/27 05:09:58;;;;;;;;;;;;;;;24.29;33.70;99492.41;6154303;23;20352;-69
2023/07/27 05:12:23;;;;;;;;;;;;;;;24.29;33.65;99488.81;6152878;23;19916;-69
2023/07/27 05:14:48;;;;;;;;;;;;;;;24.28;33.45;99499.00;6128591;23;20219;-69
2023/07/27 05:17:14;;;;;;;;;;;;;;;24.23;33.76;99487.31;6154355;23;19915;-68
2023/07/27 05:19:39;;;;;;;;;;;;;;;24.27;33.90;99491.06;6127288;23;20314;-68
2023/07/27 05:22:04;;;;;;;;;;;;;;;24.23;33.75;99496.34;6155443;23;19995;-68
2023/07/27 05:24:30;;;;;;;;;;;;;;;24.21;33.77;99490.38;6153924;23;19971;-68
2023/07/27 05:26:55;;;;;;;;;;;;;;;24.21;33.63;99489.56;6155060;23;19959;-68
2023/07/27 05:29:20;;;;;;;;;;;;;;;24.23;33.72;99501.03;6154914;23;20276;-68
2023/07/27 05:31:47;;;;;;;;;;;;;;;24.20;33.44;99494.25;6151593;23;19909;-69
2023/07/27 05:34:12;;;;;;;;;;;;;;;24.19;33.61;99492.59;6152783;23;19919;-69
2023/07/27 05:36:38;;;;;;;;;;;;;;;24.18;33.78;99484.69;6153108;23;19908;-69
2023/07/27 05:39:03;;;;;;;;;;;;;;;24.22;33.60;99493.91;6154635;23;20016;-70
2023/07/27 05:41:29;;;;;;;;;;;;;;;24.20;33.95;99494.25;6153387;23;20207;-68
2023/07/27 05:43:54;;;;;;;;;;;;;;;24.21;34.01;99492.31;6152627;23;19908;-68
2023/07/27 05:46:19;;;;;;;;;;;;;;;24.27;34.15;99491.88;6154551;23;19908;-69
2023/07/27 05:48:45;;;;;;;;;;;;;;;24.34;33.79;99499.69;6152923;23;19952;-66
2023/07/27 05:51:10;;;;;;;;;;;;;;;24.41;33.93;99504.75;6153684;23;19912;-66
2023/07/27 05:53:35;;;;;;;;;;;;;;;24.46;33.87;99499.13;6154185;23;19909;-66
2023/07/27 05:56:01;;;;;;;;;;;;;;;24.58;33.46;99496.69;6153547;23;19909;-67
2023/07/27 05:58:26;;;;;;;;;;;;;;;24.76;33.47;99510.53;6153308;23;19909;-63
2023/07/27 06:01:02;;;;;;;;;;;;;;;24.89;33.30;99506.94;6151695;23;19943;-63
2023/07/27 06:03:28;;;;;;;;;;;;;;;25.11;33.92;99506.09;6152303;23;19923;-63
2023/07/27 06:05:54;;;;;;;;;;;;;;;25.15;33.38;99507.09;6155245;23;19936;-63
2023/07/27 06:08:19;;;;;;;;;;;;;;;25.27;33.44;99499.09;6126514;23;19916;-63
2023/07/27 06:10:44;;;;;;;;;;;;;;;25.43;33.09;99506.94;6155097;23;19915;-63
2023/07/27 06:13:10;;;;;;;;;;;;;;;25.47;32.68;99502.44;6152816;23;19913;-64
2023/07/27 06:15:35;;;;;;;;;;;;;;;25.57;33.08;99506.84;6154531;23;19916;-63
2023/07/27 06:18:00;;;;;;;;;;;;;;;25.62;32.75;99514.94;6152183;23;19912;-63
2023/07/27 06:20:25;;;;;;;;;;;;;;;25.66;32.60;99505.72;6152883;23;19968;-63
2023/07/27 06:22:51;;;;;;;;;;;;;;;25.78;32.67;99509.81;6153928;23;19935;-63
2023/07/27 06:25:16;;;;;;;;;;;;;;;25.81;32.54;99509.19;6152703;23;19992;-63
2023/07/27 06:27:41;;;;;;;;;;;;;;;25.87;32.08;99508.72;6126556;23;20239;-63
2023/07/27 06:30:08;;;;;;;;;;;;;;;25.91;32.50;99510.81;6153711;23;19913;-64
2023/07/27 06:32:33;;;;;;;;;;;;;;;25.94;32.57;99511.03;6151905;23;19909;-63
2023/07/27 06:34:59;;;;;;;;;;;;;;;25.92;32.17;99517.94;6154618;23;20000;-63
2023/07/27 06:37:24;;;;;;;;;;;;;;;26.00;32.88;99515.25;6154198;23;19915;-63
2023/07/27 06:39:49;;;;;;;;;;;;;;;26.07;32.00;99507.31;6152289;23;20010;-64
2023/07/27 06:42:15;;;;;;;;;;;;;;;26.10;31.84;99505.88;6152071;23;19935;-63
2023/07/27 06:44:40;;;;;;;;;;;;;;;26.12;31.97;99511.06;6152063;23;20302;-63
2023/07/27 06:47:05;;;;;;;;;;;;;;;26.16;32.45;99518.34;6126124;23;19963;-63
2023/07/27 06:49:31;;;;;;;;;;;;;;;26.18;32.48;99513.34;6154272;23;19912;-63
2023/07/27 06:51:56;;;;;;;;;;;;;;;26.24;31.66;99509.31;6152526;23;20051;-64
2023/07/27 06:54:21;;;;;;;;;;;;;;;26.26;31.90;99517.22;6153778;23;19915;-63
2023/07/27 06:56:47;;;;;;;;;;;;;;;26.37;31.90;99518.53;6153588;23;20395;-64
2023/07/27 06:59:13;;;;;;;;;;;;;;;26.53;31.29;99523.59;6153610;23;19954;-64
2023/07/27 07:01:38;;;;;;;;;;;;;;;26.58;31.61;99528.94;6153748;23;19909;-63
2023/07/27 07:04:04;;;;;;;;;;;;;;;26.66;31.19;99522.63;6151938;23;19995;-63
2023/07/27 07:06:30;;;;;;;;;;;;;;;26.81;31.84;99526.84;6154254;23;19916;-63
2023/07/27 07:08:57;;;;;;;;;;;;;;;26.89;31.52;99526.00;6152523;23;19909;-63
2023/07/27 07:11:25;;;;;;;;;;;;;;;27.05;31.03;99523.56;6153513;23;19915;-63
2023/07/27 07:13:51;;;;;;;;;;;;;;;27.15;31.24;99525.16;6152559;23;19983;-63
2023/07/27 07:16:18;;;;;;;;;;;;;;;27.20;30.70;99525.78;6151988;23;19988;-63
2023/07/27 07:18:43;;;;;;;;;;;;;;;27.31;30.82;99522.72;6128125;23;19916;-63
2023/07/27 07:21:09;;;;;;;;;;;;;;;27.24;30.14;99524.00;6152607;23;19916;-63
2023/07/27 07:23:34;;;;;;;;;;;;;;;27.20;29.34;99525.00;6154001;23;19913;-63
2023/07/27 07:25:59;;;;;;;;;;;;;;;27.26;29.83;99526.44;6152354;23;20006;-64
2023/07/27 07:28:24;;;;;;;;;;;;;;;27.30;29.65;99534.88;6152719;23;19908;-64
2023/07/27 07:30:50;;;;;;;;;;;;;;;27.30;29.76;99530.16;6152684;23;20211;-63
2023/07/27 07:33:15;;;;;;;;;;;;;;;27.33;29.96;99532.28;6152993;23;19932;-63
2023/07/27 07:35:40;;;;;;;;;;;;;;;27.42;29.86;99533.06;6151955;23;20262;-63
2023/07/27 07:38:06;;;;;;;;;;;;;;;27.48;29.26;99533.69;6153678;23;19909;-63
2023/07/27 07:40:31;;;;;;;;;;;;;;;27.45;29.92;99547.31;6152089;23;19967;-63
2023/07/27 07:42:57;;;;;;;;;;;;;;;27.45;29.77;99533.53;6153342;23;19908;-64
2023/07/27 07:45:22;;;;;;;;;;;;;;;27.51;29.61;99543.28;6150562;23;19908;-63
2023/07/27 07:47:48;;;;;;;;;;;;;;;27.41;29.11;99544.41;6151418;23;20011;-63
2023/07/27 07:50:13;;;;;;;;;;;;;;;27.46;29.20;99547.00;6153582;23;19908;-63
2023/07/27 07:52:39;;;;;;;;;;;;;;;27.45;28.83;99537.13;6151998;23;20322;-63
2023/07/27 07:55:06;;;;;;;;;;;;;;;27.52;30.26;99533.84;6154479;23;19909;-63
2023/07/27 07:57:32;;;;;;;;;;;;;;;27.64;29.42;99544.16;6153470;23;19931;-64
2023/07/27 07:59:57;;;;;;;;;;;;;;;27.65;29.10;99530.03;6155397;23;20251;-63
2023/07/27 08:02:22;;;;;;;;;;;;;;;27.66;29.74;99539.94;6155113;23;19995;-63
2023/07/27 08:04:48;;;;;;;;;;;;;;;27.68;29.60;99553.41;6153816;23;19992;-63
2023/07/27 08:07:13;;;;;;;;;;;;;;;27.67;29.43;99549.03;6154027;23;19915;-64
2023/07/27 08:09:38;;;;;;;;;;;;;;;27.71;29.72;99550.81;6155261;23;19993;-64
2023/07/27 08:12:04;;;;;;;;;;;;;;;27.77;29.97;99548.69;6152547;23;20871;-63
2023/07/27 08:14:29;;;;;;;;;;;;;;;27.73;29.34;99554.03;6155858;23;19988;-63
2023/07/27 08:16:54;;;;;;;;;;;;;;;27.78;30.43;99548.31;6153577;23;19915;-63
2023/07/27 08:19:20;;;;;;;;;;;;;;;27.85;29.48;99539.53;6154466;23;19971;-64
2023/07/27 08:21:45;;;;;;;;;;;;;;;27.85;29.13;99541.50;6155125;23;19908;-64
2023/07/27 08:24:11;;;;;;;;;;;;;;;27.91;29.40;99546.50;6153941;23;20311;-63
2023/07/27 08:26:36;;;;;;;;;;;;;;;27.95;29.09;99550.25;6155083;23;19912;-64
2023/07/27 08:29:01;;;;;;;;;;;;;;;28.06;29.52;99550.66;6153632;23;19909;-63
2023/07/27 08:31:27;;;;;;;;;;;;;;;28.02;29.68;99546.13;6154485;23;19963;-63
2023/07/27 08:33:53;;;;;;;;;;;;;;;28.02;28.82;99549.69;6154982;23;19979;-64
2023/07/27 08:36:18;;;;;;;;;;;;;;;28.06;29.69;99541.56;6154235;23;20262;-63
2023/07/27 08:38:43;;;;;;;;;;;;;;;28.11;29.15;99542.19;6153151;23;19916;-64
2023/07/27 08:41:09;;;;;;;;;;;;;;;28.19;28.40;99548.78;6152310;23;19939;-64
2023/07/27 08:43:34;;;;;;;;;;;;;;;28.17;28.31;99543.59;6154860;23;20306;-64
2023/07/27 08:46:00;;;;;;;;;;;;;;;28.24;29.65;99551.34;6128211;23;19917;-64
2023/07/27 08:48:27;;;;;;;;;;;;;;;28.17;29.72;99554.63;6153492;23;19955;-64
2023/07/27 08:50:53;;;;;;;;;;;;;;;28.10;30.06;99554.38;6153628;23;19908;-64
2023/07/27 08:53:18;;;;;;;;;;;;;;;28.09;28.35;99555.50;6153081;23;20007;-63
2023/07/27 08:55:44;;;;;;;;;;;;;;;28.10;29.56;99553.56;6155951;23;19955;-63
2023/07/27 08:58:10;;;;;;;;;;;;;;;28.16;28.88;99557.75;6156223;23;19909;-64
2023/07/27 09:00:37;;;;;;;;;;;;;;;28.18;28.31;99549.94;6152613;23;19916;-64
2023/07/27 09:03:03;;;;;;;;;;;;;;;28.22;29.52;99558.38;6155369;23;19923;-64
2023/07/27 09:05:39;;;;;;;;;;;;;;;28.19;28.74;99554.31;6153672;23;19996;-64
2023/07/27 09:08:08;;;;;;;;;;;;;;;28.21;28.35;99553.97;6154456;23;19991;-64
2023/07/27 09:10:33;;;;;;;;;;;;;;;28.37;29.72;99558.56;6153912;23;20361;-68
2023/07/27 09:12:59;;;;;;;;;;;;;;;28.57;28.40;99553.44;6127898;23;19908;-65
2023/07/27 09:15:26;;;;;;;;;;;;;;;28.79;28.98;99557.81;6154809;23;19908;-66
2023/07/27 09:17:52;;;;;;;;;;;;;;;28.90;29.93;99560.94;6154395;23;19912;-70
2023/07/27 09:20:17;;;;;;;;;;;;;;;28.91;28.58;99562.56;6154146;23;19913;-68
2023/07/27 09:22:44;;;;;;;;;;;;;;;28.99;28.09;99566.41;6154473;23;19913;-70
2023/07/27 09:25:09;;;;;;;;;;;;;;;29.15;27.79;99571.00;6153230;23;20304;-69
2023/07/27 09:27:42;;;;;;;;;;;;;;;29.31;27.38;99573.94;6153768;23;19924;-70
2023/07/27 09:30:08;;;;;;;;;;;;;;;29.43;28.25;99564.03;6152980;23;20011;-66
2023/07/27 09:32:34;;;;;;;;;;;;;;;29.58;26.89;99568.09;6154068;23;19943;-68
2023/07/27 09:34:59;;;;;;;;;;;;;;;29.65;27.89;99571.91;6128086;23;19944;-64
2023/07/27 09:37:25;;;;;;;;;;;;;;;29.83;27.37;99569.78;6152434;23;19915;-63
2023/07/27 09:40:04;;;;;;;;;;;;;;;30.00;27.60;99565.97;6153765;23;19916;-63
2023/07/27 09:42:32;;;;;;;;;;;;;;;30.15;26.62;99569.19;6151750;23;19916;-63
2023/07/27 09:44:58;;;;;;;;;;;;;;;30.34;27.43;99560.31;6154292;23;19938;-65
2023/07/27 09:47:29;;;;;;;;;;;;;;;30.40;26.55;99565.25;6152605;23;19963;-64
2023/07/27 09:49:57;;;;;;;;;;;;;;;30.52;26.77;99558.09;6153034;23;19909;-65
2023/07/27 09:52:26;;;;;;;;;;;;;;;30.66;27.08;99561.25;6153335;23;19944;-65
2023/07/27 09:54:53;;;;;;;;;;;;;;;30.84;26.65;99561.78;6152757;23;19912;-65
2023/07/27 09:57:20;;;;;;;;;;;;;;;31.03;27.14;99555.59;6154009;23;19908;-64
2023/07/27 09:59:45;;;;;;;;;;;;;;;31.16;27.24;99556.34;6153602;23;20219;-64
2023/07/27 10:02:12;;;;;;;;;;;;;;;31.15;26.64;99554.72;6153023;23;19971;-64
2023/07/27 10:04:37;;;;;;;;;;;;;;;31.12;26.59;99552.69;6154274;23;19917;-64
2023/07/27 10:07:03;;;;;;;;;;;;;;;30.93;26.60;99554.16;6151321;23;19908;-65
2023/07/27 10:09:29;;;;;;;;;;;;;;;30.74;26.47;99552.00;6154945;23;19915;-65
2023/07/27 10:11:59;;;;;;;;;;;;;;;30.55;25.95;99552.63;6154600;23;19908;-65
2023/07/27 10:14:26;;;;;;;;;;;;;;;30.48;27.52;99558.78;6152459;23;19981;-65
2023/07/27 10:17:02;;;;;;;;;;;;;;;30.45;26.30;99553.94;6154138;23;19912;-65
2023/07/27 10:19:43;;;;;;;;;;;;;;;30.49;26.58;99548.50;6152832;23;19919;-64
2023/07/27 10:22:11;;;;;;;;;;;;;;;30.51;26.33;99551.72;6153901;23;20262;-65
2023/07/27 10:24:45;;;;;;;;;;;;;;;30.52;26.09;99549.78;6151771;23;19912;-64
2023/07/27 10:27:11;;;;;;;;;;;;;;;30.63;26.01;99548.94;6153831;23;19912;-65
2023/07/27 10:29:36;;;;;;;;;;;;;;;30.76;25.13;99546.09;6153009;23;20409;-65
2023/07/27 10:32:05;;;;;;;;;;;;;;;30.71;25.45;99549.94;6152379;23;19996;-65
2023/07/27 10:34:31;;;;;;;;;;;;;;;30.55;23.63;99557.38;6153924;23;19980;-65
2023/07/27 10:36:58;;;;;;;;;;;;;;;30.67;26.69;99555.38;6152675;23;19909;-65
2023/07/27 10:39:27;;;;;;;;;;;;;;;31.01;25.89;99558.72;6154334;23;19920;-65
2023/07/27 10:42:01;;;;;;;;;;;;;;;31.21;25.25;99548.59;6154153;23;19916;-65
2023/07/27 10:44:40;;;;;;;;;;;;;;;31.27;25.29;99547.16;6125281;23;19987;-65
2023/07/27 10:47:06;;;;;;;;;;;;;;;31.50;26.92;99546.59;6153222;23;19949;-65
2023/07/27 10:49:37;;;;;;;;;;;;;;;31.87;25.41;99542.72;6152916;23;19940;-65
2023/07/27 10:52:02;;;;;;;;;;;;;;;32.13;25.00;99544.94;6153979;23;19909;-65
2023/07/27 10:54:29;;;;;;;;;;;;;;;32.29;23.56;99539.38;6153368;23;19996;-65
2023/07/27 10:56:54;;;;;;;;;;;;;;;32.38;23.82;99546.31;6152379;23;19908;-65
2023/07/27 10:59:21;;;;;;;;;;;;;;;32.43;24.98;99542.47;6152394;23;19913;-65
2023/07/27 11:01:47;;;;;;;;;;;;;;;32.42;24.11;99549.97;6152530;23;19917;-65
2023/07/27 11:04:13;;;;;;;;;;;;;;;32.32;23.46;99547.78;6152575;23;19979;-65
2023/07/27 11:06:45;;;;;;;;;;;;;;;32.25;25.45;99546.81;6152442;23;20038;-65
2023/07/27 11:09:15;;;;;;;;;;;;;;;32.42;23.74;99538.84;6151765;23;19916;-65
2023/07/27 11:11:41;;;;;;;;;;;;;;;32.84;25.19;99542.09;6154342;23;19956;-65
2023/07/27 11:14:06;;;;;;;;;;;;;;;33.18;24.06;99541.22;6151715;23;19944;-65
2023/07/27 11:16:33;;;;;;;;;;;;;;;33.63;24.75;99538.03;6151998;23;20294;-65
2023/07/27 11:19:00;;;;;;;;;;;;;;;33.98;23.68;99548.97;6153463;23;20449;-65
2023/07/27 11:21:26;;;;;;;;;;;;;;;34.52;25.28;99544.16;6153094;23;19909;-65
2023/07/27 11:23:51;;;;;;;;;;;;;;;34.95;23.44;99535.53;6153490;23;20491;-66
2023/07/27 11:26:16;;;;;;;;;;;;;;;35.26;20.78;99525.94;6151140;23;20303;-65
2023/07/27 11:28:41;;;;;;;;;;;;;;;35.26;23.90;99534.31;6153967;23;19909;-66
2023/07/27 11:31:08;;;;;;;;;;;;;;;35.55;23.10;99528.97;6152733;23;20330;-65
2023/07/27 11:33:34;;;;;;;;;;;;;;;35.63;22.19;99539.81;6149608;23;19908;-65
2023/07/27 11:36:00;;;;;;;;;;;;;;;35.51;22.95;99542.09;6154157;23;19979;-66
2023/07/27 11:38:26;;;;;;;;;;;;;;;35.38;21.79;99536.78;6151395;23;19940;-65
2023/07/27 11:40:53;;;;;;;;;;;;;;;35.03;21.74;99540.81;6154191;23;19916;-65
2023/07/27 11:43:19;;;;;;;;;;;;;;;34.92;20.02;99537.13;6153463;23;19936;-66
2023/07/27 11:45:44;;;;;;;;;;;;;;;34.84;20.24;99539.00;6152393;23;19936;-66
2023/07/27 11:48:10;;;;;;;;;;;;;;;35.01;22.70;99536.78;6150329;23;19908;-66
2023/07/27 11:50:38;;;;;;;;;;;;;;;35.43;20.37;99533.66;6151275;23;19979;-66
2023/07/27 11:53:07;;;;;;;;;;;;;;;35.89;22.67;99528.88;6153791;23;19938;-66
2023/07/27 11:55:34;;;;;;;;;;;;;;;36.52;19.79;99521.28;6152225;23;19920;-66
2023/07/27 11:58:03;;;;;;;;;;;;;;;36.71;19.62;99520.97;6150366;23;19920;-66
2023/07/27 12:00:28;;;;;;;;;;;;;;;36.62;18.42;99523.28;6153591;23;19987;-66
2023/07/27 12:02:54;;;;;;;;;;;;;;;36.63;19.19;99513.72;6150750;23;20356;-66
2023/07/27 12:05:22;;;;;;;;;;;;;;;36.73;20.83;99512.16;6153289;23;19915;-66
2023/07/27 12:07:48;;;;;;;;;;;;;;;36.87;20.88;99514.19;6153582;23;19958;-66
2023/07/27 12:10:15;;;;;;;;;;;;;;;36.73;19.58;99512.16;6151811;23;19944;-66
2023/07/27 12:12:51;;;;;;;;;;;;;;;36.67;20.69;99511.75;6153991;23;19920;-66
2023/07/27 12:15:24;;;;;;;;;;;;;;;36.42;20.77;99514.41;6152783;23;19912;-66
2023/07/27 12:17:53;;;;;;;;;;;;;;;36.11;19.41;99511.03;6153710;23;19991;-66
2023/07/27 12:20:19;;;;;;;;;;;;;;;35.75;19.04;99504.41;6152993;23;19951;-66
2023/07/27 12:22:44;;;;;;;;;;;;;;;35.48;19.61;99507.38;6152239;23;20215;-66
2023/07/27 12:25:09;;;;;;;;;;;;;;;35.45;20.81;99506.13;6153231;23;19909;-66
2023/07/27 12:27:35;;;;;;;;;;;;;;;35.64;19.55;99499.53;6151647;23;19916;-66
2023/07/27 12:30:00;;;;;;;;;;;;;;;35.88;20.16;99505.69;6153175;23;20326;-66
2023/07/27 12:32:26;;;;;;;;;;;;;;;36.57;20.39;99504.91;6153542;23;19916;-66
2023/07/27 12:34:51;;;;;;;;;;;;;;;37.00;18.63;99505.03;6152129;23;20222;-66
2023/07/27 12:37:16;;;;;;;;;;;;;;;37.23;20.41;99503.13;6153780;23;19992;-66
2023/07/27 12:39:42;;;;;;;;;;;;;;;37.30;18.80;99503.13;6124723;23;19952;-66
2023/07/27 12:42:07;;;;;;;;;;;;;;;37.16;17.93;99501.09;6153485;23;19913;-64
2023/07/27 12:44:32;;;;;;;;;;;;;;;36.96;18.25;99506.22;6155305;23;20366;-66